Pagina principală
METAR-TAF:

METAR-TAF

Aeroporturi :

Midland, Texas, Statele Unite ale Americii

Latitudine: 31-56-52N, longitudine: 102-12-31W, elevație: 875 m

Observații meteo curente

Raportul a fost făcut în urmă cu 1 oră și 11 de minute, la 14:53 UTC
Vânt 6 kt de la Sud/Sud-vest
Temperatură 27°C
Umiditate 54%
Presiune 1024 hPa
Vizibilitate: 16.1 km
Cer senin

METAR: KMAF 251453Z 21006KT 10SM CLR 27/17 A3023 RMK AO2 SLP188 T02670172 51007

Ora: 11:04 (16:04 UTC)

Prognoză

Raportul a fost făcut în urmă cu 4 ore și 44 de minute, la 11:20 UTC
Prognoză valabilă de la 25 ora 12 UTC la 26 ora 12 UTC
Vânt 9 kt de la Est
Vizibilitate: 10 km
Cer senin
De la 26 ora 0200 UTC
Vânt 7 kt de la Est/Sud-est
Vizibilitate: 10 km
Cer senin

TAF: KMAF 251120Z 2512/2612 09009KT P6SM SKC FM260200 12007KT P6SM SKC

Observații și prognoze meteo pentru peste 4.000 de aeroporturi (rapoarte METAR și TAF).

Stațiile disponibile sunt reprezentate pe hartă prin puncte galbene și roșii.

Țineți indicatorul mouse-ului pe punctul dorit pentru a vedea denumirea stației.

Apoi, faceți clic pentru a vedea observațiile și prognozele meteorologice.

Pentru a schimba harta: Pentru mărire, faceți clic pe butoanele verzi cu cruce neagră; pentru micșorare, pe butonul verde cu o liniuță; pentru hărți învecinate, pe săgețile verzi.


METAR-TAF: